Terminal Aerodrome Forecast
Issued by NWS Sterling, VA

Current Version | Previous Version | Graphics & Text | Print | Product List | Glossary On
Versions: 1 2 3 4 5 6 7 8 9 10 11 12 13 14 15 16 17 18 19 20 21 22 23 24 25 26
000
FTUS41 KLWX 172346
TAFDCA
TAF
KDCA 172346Z 1800/1824 VRB03KT P6SM FEW040 SCT250
     FM180900 03004KT P6SM BKN015 BKN040
     FM181300 04006KT P6SM BKN008 BKN040
     FM181500 04006KT P6SM BKN010 BKN040
     FM181800 05007KT P6SM BKN035 BKN040=

USA.gov is the U.S. government's official web portal to all federal, state and local government web resources and services.